Timeline UpdatesTrip UpdatesNews PostsPvt PostsTravel TipsAdmin PostsConv PostsFollowed PostsChat RequestsBlog PostsPNR Posts

Disclaimer
Search
 
 
Thu Aug 28, 2014 18:34:08 ISTHomeTrainsΣChainsAtlasPNRForumGalleryNewsFAQTripsMembersLoginFeedback
No Recent News for this Train
Other Trains in the News **new
Latest...
Will Reach TVC @ 17.15 Wef 05/07/2014.
Sat Jun 28, 2014 (08:30PM)
⇐ Return Journey: Train# 12512

12511/Raptisagar SF Express

Nov 01 2013 (7:36AM)
Change Departure Station:
Change Arrival Station:
Post a Train Travel TipPost a Train Travel Tip **new
Post a Comment/Question/Picture/VideoPost a Comment/Question/Picture/Video
Pantry/Catering
✓ Pantry Car Avbl
✓ Catering Avbl
Loco/Rake Reversals
MAS/Chennai Central (12); LJN/Lucknow Junction (6); SRR/Shoranur Junction (7);
RSA - Rake Sharing
12511/12512/12589/12590/12591/12592
Rake/Coach Composition
Loco- SLR-UR-UR-A1-B4-B3-B2-B1-PC-S12-S11-S10-S9-S8-S7-S6-S5-S4-S3-S2-S1-UR-UR-SLR. ; 2AC-1, 3AC-4, PC-1, SL-12, UR-4, SLR-2= 24 COACHES.; B4 added as per http://indiarailinfo.com/pnr/post/635962
Loco
#WDM 3A GondaTill Jhansi . #WAP 4 ED/AJJ/RPM
News    PNR    Forum    Time-Table    Availability    Fare Chart    Map    Arr/Dep History    Trips    Gallery    ΣChains    X/O    Timeline    
Travel Time: 58h 55m    59 halts    Distance: 3248 km    Avg Speed: 55 km/hr
Type: SuperFast
Zone: NER/North Eastern
Departs @ 06:35 (Avg 5m late)
Platform# 9
S   TF 
Gorakhpur Junction/GKP 
Arrives @ 17:30 +2 nights (Avg 25m late)
Platform# 1
S T   S
Trivandrum Central/TVC 

59 halts. 521 intermediate Stations between Gorakhpur Junction and Trivandrum Central

Show ALL intermediate Stations  Show Old Time-Table

#CodeStation NameX/OArrivesAvgDepartsAvgHaltPFDay#KmSpeedElevZoneAddress
1GKP»Gorakhpur Junction (10)»  -06:35+5910.05784mNERGorakhpur 273001, Uttar Pradesh
2KLDKhalilabad (3)  07:11+1307:13+132m1133.96686mNERKhalilabad- 272175, Uttar Pradesh
3BSTBasti (4)  07:40+1507:45+145m1163.57390mNERBasti 272001, Uttar Pradesh
4MURMankapur Junction (5)O  08:35+1408:37+142m31124.073104mNERDistrict Gonda, Uttar Pradesh
5GDGonda Junction (3)  09:00+1709:05+185m11151.965110mNERGonda 271001, Uttar Pradesh
6BBKBarabanki Junction (4)  10:27+1910:29+182m11241.255122mNRPin-225001, Uttar Pradesh
7BNZBadshahnagar (2)  10:56+2210:58+222m11265.821116mNERLucknow, Uttar Pradesh
8LJNLucknow Junction (6)X11:30+1311:50+920m21276.863126mNERLucknow, Uttar Pradesh
9ONUnnao Junction (5)X  12:41+2712:43+272m21330.731129mNRUnnao, Uttar Pradesh
10CNBKanpur Central (10)  13:17+3513:22+385m41348.164128mNCRKANPUR-208 001, Uttar Pradesh
11PHNPokhrayan (2)  14:17+1:0314:19+1:032m11406.680133mNCRPukhrayan, Uttar Pradesh
12ORAIOrai (3)  14:55+1:1415:00+1:175m21454.465139mNCROrai(05162-252206), Uttar Pradesh
13JHSJhansi Junction (7)16:45+1:2217:00+1:2915m21568.387259mNCRJhansi, Uttar Pradesh
14LARLalitpur (3)  18:02+1:4018:04+1:402m11658.767373mNCRLalitpur, Uttar Pradesh
15BPLBhopal Junction (6)X  21:05+1:2821:15+1:2410m11860.252497mWCRBhopal, Madhya Pradesh
16ETItarsi Junction (7)  23:00+1:1823:05+1:255m21951.968329mWCRItarsi 461111, Madhya Pradesh
17GDYAGhoradongri (3)  00:07+1:3100:09+1:322m--21022.249 CRBetul, Madhya Pradesh
18BZUBetul (3)X  00:53+1:4200:55+1:422m--21058.157644mCRBetul, Madhya Pradesh
19AMLAAmla Junction (5)XO  01:19+1:4201:22+1:423m--21081.063733mCRAmla Distt. Betul, Madhya Pradesh
20PARPandhurna (2)X  02:23+1:4702:25+1:482m--21144.760481mCRDistt: Chhindwara, Madhya Pradesh
21NGPNagpur Junction (8)X  04:10+1:3304:20+1:3710m221249.079314mCRNagpur 440001, Maharashtra
22SEGMSewagram Junction (5)  05:18+1:4905:20+1:512m--21325.271279mCRWardha, Maharashtra
23HGTHinganghat (3)X  05:48+1:5105:50+1:532m--21358.378228mCRHinganghat, Maharashtra
24CDChandrapur Maharashtra (3)  06:56+1:5606:58+1:562m--21443.812194mCRChandrapur 442401, Maharashtra
25BPQBalharshah Junction (5)XO08:05+1:1408:35+1:0330m321457.685188mCRBallarpur. Ph : 07172 - 240341, Maharashtra
26SKZRSirpur Kaghaznagar (3)O  09:24+1:1109:26+1:102m221527.364181mSCRAdilabad Dist., Telangana
27BPABellampalli (3)  10:02+1:0810:04+1:082m221565.885205mSCRTel:.08735 223298, Telangana
28MCIManchiryal (3)O  10:18+1:1210:20+1:112m221585.7103159mSCRAdilabad Dist., Telangana
29RDMRamagundam (3)X  10:28+1:2410:30+1:232m221599.465170mSCRKarimnagar Dist. Ph : 08728 - 255237, Telangana
30WLWarangal (3)  12:03+1:1812:05+1:202m121700.572271mSCRWarangal., Telangana
31KMTKhammam (2)X  13:35+1:0213:37+1:032m121808.145118mSCRKhammam 507001, Telangana
32BZAVijayawada Junction (10)X  15:50+5116:05+5115m--21908.57424mSCRVijayawada 520001, Andhra Pradesh
33CLXChirala (4)X  17:17+1:1017:19+1:102m--21997.4698mSCRChirala, Andhra Pradesh
34OGLOngole (3)  18:02+1:0318:04+1:032m322046.89312mSCROngole, Andhra Pradesh
35NLRNellore (4)X  19:19+4019:20+351m322163.52521mSCRNellore, Andhra Pradesh
36GDRGudur Junction (3)  20:53+3520:55+352m122202.05719mSCRGudur, Andhra Pradesh
37MASChennai Central (12)X23:20+3223:45+3825m622339.4659mSRChennai 600003, Tamil Nadu
38KPDKatpadi Junction (5)X  01:45+4801:50+465m132468.859213mSRVellore 632007, Tamil Nadu
39JTJJolarpettai Junction (5)  03:15+2903:20+315m--32552.785405mSRJolarpettai, Tamil Nadu
40SASalem Junction (6)X  04:45+4604:50+465m--32672.849283mSRSalem, Tamil Nadu
41EDErode Junction (4)X  06:05+3206:15+4410m132734.670175mSRErode ph.no: 0424-2256111, Tamil Nadu
42TUPTiruppur (2)  06:58+4407:00+442m132784.561305mSRTiruppur. Ph:0421-2200450, Tamil Nadu
43CBECoimbatore Main Junction (6)X  07:50+4107:55+425m132835.148416mSRCoimbatore 641001, Tamil Nadu
44PGTPalakkad Junction (4)XO  09:05+4109:10+425m232890.86784mSRPalghat Tel: 0491 2555231, Kerala
45OTPOttappalam (2)X  09:38+4509:40+442m132922.31930mSROttapalam, Kerala
46SRRShoranur Junction (7)X10:20+2910:30+3810m532935.15526mSRShoranur ph.no 0466-2222913, Kerala
47WKIWadakkanchery (2)X  10:48+5310:50+522m132951.73640mSRWadackanchery, Kerala
48TCRThrissur (4)O  11:17+4311:20+433m132968.1536mSRThrissur Tel: 0487 2423150, Kerala
49IJKIrinjalakkuda (2)  11:47+4311:48+431m--32991.87718mSRKalletumkara, Kerala
50CKIChalakkudy (3)X  11:53+4611:55+452m132998.3709mSRPh: 0480- 2701368, Kerala
51AFKAngamaly for Kalady (3)  12:08+5012:10+502m--33013.55516mSRPhone: 0484-2452340, Kerala
52AWYAluva (3)  12:20+5112:23+513m133022.73212mSRPh: 0484-2624141, Kerala
53ERNErnakulam Town (North) (2)XO  12:55+4412:57+442m233039.5129mSRTel: 0484 2395198, Kerala
54ERSErnakulam Junction (South) (6)  13:10+4213:15+465m433042.1473mSRErnakulam 682016, Kerala
55SRTLCherthala (3)  13:58+4214:00+442m233075.5457mSRPh: 0478- 2812500, Kerala
56ALLPAlappuzha (3)  14:32+3514:35+353m133099.6568mSRPh:0477-2253965, Kerala
57AMPAAmbalappuzha (1)  14:48+3614:50+372m133111.8606mSRph 0477-2272620, Kerala
58HADHarippad (2)  15:08+3615:10+362m--33129.7617mSRHaripad 0479-2412714, Kerala
59KYJKayamkulam Junction (5)  15:23+4415:25+442m233143.05411mSRAlappuzha Ph;0479-2442042, Kerala
60QLNKollam Junction (6)  16:10+3516:15+355m133183.85216mSRKollam 0474-2746194, Kerala
61TVC•Trivandrum Central (5)•  17:30+25-133248.4-12mSRThiruvananthapuram 695001, Kerala
Scroll to Top
Scroll to Bottom